Melo Viana, Brazil
Current Conditions -  °F | °C
As of 6:08 AM on Wednesday 26 Nov 2014 (Local Time) from SBBH Reporting Station
Light Rain Light Rain  
Wind Chill: 68°   Ceiling: 2500
Heat Index: 68°   Visibility: 1.8mi
Dew Point: 64°   Wind: 5mph
Humidity: 88%   Direction: 70°ENE
Pressure: 29.94"   Gusts: NA
Location:  19.7°S, 44.19°W
Report Text: SBBH 260808Z 07004KT 3000 -RA BR FEW007 BKN025 OVC100 20/18 Q1014
Loading
Personal Weather Stations






























Interactive Weather Map New forecast layout! Learn more

10-Day Weather Forecast

Advertisements
Track Severe Weather on mobile